Time;durP1;ratioP1;P1;durP2;ratioP2;P2;SDS_P1;SDS_P2;PMS_P1;PMS_P2;Temp;Humidity;BMP_temperature;BMP_pressure;BME280_temperature;BME280_humidity;BME280_pressure;Samples;Min_cycle;Max_cycle;Signal;HPM_P1;HPM_P2
2022/09/27 00:01:03;;;;;;;;;;;9.60;99.90;;;;;;4965725;28;19911;-89
2022/09/27 00:03:29;;;;;;;;;;;9.60;99.90;;;;;;4971160;28;19911;-89
2022/09/27 00:06:04;;;;;;;;;;;9.60;99.90;;;;;;4951852;29;19961;-89
2022/09/27 00:08:31;;;;;;;;;;;9.50;99.90;;;;;;4981821;28;19914;-89
2022/09/27 00:10:58;;;;;;;;;;;9.50;99.90;;;;;;4963150;28;19915;-89
2022/09/27 00:13:23;;;;;;;;;;;9.50;99.90;;;;;;4985162;28;19917;-89
2022/09/27 00:15:54;;;;;;;;;;;9.50;99.90;;;;;;4961931;28;19933;-88
2022/09/27 00:18:20;;;;;;;;;;;9.60;99.90;;;;;;4964907;28;19961;-89
2022/09/27 00:20:46;;;;;;;;;;;9.50;99.90;;;;;;4947140;28;19915;-89
2022/09/27 00:23:12;;;;;;;;;;;9.50;99.90;;;;;;4978697;28;19917;-89
2022/09/27 00:25:38;;;;;;;;;;;9.50;99.90;;;;;;4959786;29;19915;-90
2022/09/27 00:28:04;;;;;;;;;;;9.50;99.90;;;;;;4964602;29;20070;-90
2022/09/27 00:30:30;;;;;;;;;;;9.50;99.90;;;;;;4955462;29;20024;-90
2022/09/27 00:32:56;;;;;;;;;;;9.50;99.90;;;;;;4979768;28;19921;-88
2022/09/27 00:35:21;;;;;;;;;;;9.50;99.90;;;;;;4945206;29;19957;-89
2022/09/27 00:37:47;;;;;;;;;;;9.50;99.90;;;;;;4927269;29;19920;-88
2022/09/27 00:40:14;;;;;;;;;;;9.50;99.90;;;;;;4956020;29;20538;-88
2022/09/27 00:42:40;;;;;;;;;;;9.50;99.90;;;;;;4963163;28;19926;-88
2022/09/27 00:45:13;;;;;;;;;;;9.50;99.90;;;;;;4958199;29;19916;-88
2022/09/27 00:47:46;;;;;;;;;;;9.50;99.90;;;;;;4934968;29;19954;-88
2022/09/27 00:50:18;;;;;;;;;;;9.50;99.90;;;;;;4950658;29;19937;-87
2022/09/27 00:52:47;;;;;;;;;;;9.50;99.90;;;;;;4969092;28;19934;-88
2022/09/27 00:55:16;;;;;;;;;;;9.50;99.90;;;;;;4968607;28;19915;-87
2022/09/27 00:57:43;;;;;;;;;;;9.50;99.90;;;;;;4949894;29;19993;-88
2022/09/27 01:00:10;;;;;;;;;;;9.50;99.90;;;;;;4952262;28;19969;-89
2022/09/27 01:02:41;;;;;;;;;;;9.40;99.90;;;;;;4951443;29;20016;-88
2022/09/27 01:05:08;;;;;;;;;;;9.40;99.90;;;;;;4952379;29;19918;-88
2022/09/27 01:07:34;;;;;;;;;;;9.40;99.90;;;;;;4951388;29;19914;-88
2022/09/27 01:10:00;;;;;;;;;;;9.50;99.90;;;;;;4952042;28;19966;-89
2022/09/27 01:12:45;;;;;;;;;;;9.40;99.90;;;;;;4951877;29;20013;-88
2022/09/27 01:15:23;;;;;;;;;;;9.40;99.90;;;;;;4952238;29;20001;-89
2022/09/27 01:17:58;;;;;;;;;;;9.40;99.90;;;;;;4951896;29;19914;-90
2022/09/27 01:20:54;;;;;;;;;;;9.40;99.90;;;;;;4952012;29;19910;-91
2022/09/27 01:23:32;;;;;;;;;;;9.40;99.90;;;;;;4933638;29;20119;-91
2022/09/27 01:26:08;;;;;;;;;;;9.40;99.90;;;;;;4960853;28;19961;-91
2022/09/27 01:28:50;;;;;;;;;;;9.40;99.90;;;;;;4968672;28;20283;-91
2022/09/27 01:31:23;;;;;;;;;;;9.40;99.90;;;;;;4951495;28;19919;-91
2022/09/27 01:33:52;;;;;;;;;;;9.40;99.90;;;;;;4952673;28;19911;-92
2022/09/27 01:36:24;;;;;;;;;;;9.40;99.90;;;;;;4958582;28;20311;-91
2022/09/27 01:39:08;;;;;;;;;;;9.40;99.90;;;;;;4933740;29;19917;-91
2022/09/27 01:42:06;;;;;;;;;;;9.30;99.90;;;;;;4930968;29;19922;-91
2022/09/27 01:44:46;;;;;;;;;;;9.40;99.90;;;;;;4935081;29;20283;-92
2022/09/27 01:47:19;;;;;;;;;;;9.40;99.90;;;;;;4967865;28;19929;-92
2022/09/27 01:50:15;;;;;;;;;;;9.40;99.90;;;;;;4956568;28;19962;-92
2022/09/27 01:56:28;;;;;;;;;;;9.30;99.90;;;;;;4948214;29;20595;-93
2022/09/27 01:59:20;;;;;;;;;;;9.40;99.90;;;;;;4953605;28;19953;-92
2022/09/27 02:01:58;;;;;;;;;;;9.40;99.90;;;;;;4964058;28;19953;-91
2022/09/27 02:04:37;;;;;;;;;;;9.40;99.90;;;;;;4964692;29;19929;-92
2022/09/27 02:07:23;;;;;;;;;;;9.40;99.90;;;;;;4944994;29;19933;-91
2022/09/27 02:10:06;;;;;;;;;;;9.40;99.90;;;;;;4977741;28;19914;-90
2022/09/27 02:12:45;;;;;;;;;;;9.40;99.90;;;;;;4944715;29;20279;-90
2022/09/27 02:15:13;;;;;;;;;;;9.40;99.90;;;;;;4958405;29;19918;-91
2022/09/27 02:17:48;;;;;;;;;;;9.40;99.90;;;;;;4955460;28;19929;-93
2022/09/27 02:20:29;;;;;;;;;;;9.40;99.90;;;;;;4956920;28;19910;-93
2022/09/27 02:23:07;;;;;;;;;;;9.40;99.90;;;;;;4951818;28;19990;-91
2022/09/27 02:25:34;;;;;;;;;;;9.40;99.90;;;;;;4967369;28;20344;-91
2022/09/27 02:28:23;;;;;;;;;;;9.40;99.90;;;;;;4968057;28;19950;-90
2022/09/27 02:30:49;;;;;;;;;;;9.30;99.90;;;;;;4950222;28;19922;-91
2022/09/27 02:33:32;;;;;;;;;;;9.30;99.90;;;;;;4956111;28;19914;-94
2022/09/27 02:35:59;;;;;;;;;;;9.40;99.90;;;;;;4955766;28;19911;-89
2022/09/27 02:38:24;;;;;;;;;;;9.30;99.90;;;;;;4950402;28;19914;-90
2022/09/27 02:40:51;;;;;;;;;;;9.30;99.90;;;;;;4935129;29;19997;-90
2022/09/27 02:43:19;;;;;;;;;;;9.30;99.90;;;;;;4950245;28;19915;-91
2022/09/27 02:45:48;;;;;;;;;;;9.20;99.90;;;;;;4950658;28;20054;-90
2022/09/27 02:48:23;;;;;;;;;;;9.20;99.90;;;;;;4966261;28;20030;-90
2022/09/27 02:50:55;;;;;;;;;;;9.20;99.90;;;;;;4945127;28;20099;-90
2022/09/27 02:53:48;;;;;;;;;;;9.20;99.90;;;;;;4930947;29;19915;-90
2022/09/27 02:56:38;;;;;;;;;;;9.10;99.90;;;;;;4928939;29;20584;-90
2022/09/27 02:59:48;;;;;;;;;;;9.10;99.90;;;;;;4913184;29;19958;-90
2022/09/27 03:02:52;;;;;;;;;;;9.10;99.90;;;;;;4928711;29;19911;-89
2022/09/27 03:05:29;;;;;;;;;;;9.10;99.90;;;;;;4930935;29;19915;-89
2022/09/27 03:07:55;;;;;;;;;;;9.10;99.90;;;;;;4931116;29;19911;-90
2022/09/27 03:10:23;;;;;;;;;;;9.10;99.90;;;;;;4946593;29;19915;-92
2022/09/27 03:12:49;;;;;;;;;;;9.00;99.90;;;;;;4946580;29;19915;-91
2022/09/27 03:15:15;;;;;;;;;;;9.00;99.90;;;;;;4931064;29;19918;-91
2022/09/27 03:17:59;;;;;;;;;;;9.00;99.90;;;;;;4928911;29;19911;-91
2022/09/27 03:21:00;;;;;;;;;;;9.00;99.90;;;;;;4926635;29;19918;-91
2022/09/27 03:23:26;;;;;;;;;;;9.00;99.90;;;;;;4930206;29;19911;-91
2022/09/27 03:25:53;;;;;;;;;;;9.00;99.90;;;;;;4946842;29;19984;-92
2022/09/27 03:28:19;;;;;;;;;;;8.90;99.90;;;;;;4930575;29;20158;-91
2022/09/27 03:30:46;;;;;;;;;;;8.90;99.90;;;;;;4930832;29;20375;-92
2022/09/27 03:33:24;;;;;;;;;;;8.90;99.90;;;;;;4945409;29;19922;-92
2022/09/27 03:35:55;;;;;;;;;;;8.90;99.90;;;;;;4914690;29;19922;-92
2022/09/27 03:38:21;;;;;;;;;;;8.80;99.90;;;;;;4930768;29;19911;-91
2022/09/27 03:40:47;;;;;;;;;;;8.90;99.90;;;;;;4914692;29;20411;-91
2022/09/27 03:43:13;;;;;;;;;;;8.80;99.90;;;;;;4915160;29;19911;-93
2022/09/27 03:45:39;;;;;;;;;;;8.90;99.90;;;;;;4934695;29;20402;-92
2022/09/27 03:48:10;;;;;;;;;;;8.90;99.90;;;;;;4934178;29;19917;-92
2022/09/27 03:50:36;;;;;;;;;;;8.80;99.90;;;;;;4919660;29;19911;-92
2022/09/27 03:53:02;;;;;;;;;;;8.90;99.90;;;;;;4915740;29;19915;-92
2022/09/27 03:55:27;;;;;;;;;;;8.80;99.90;;;;;;4931561;29;19919;-91
2022/09/27 03:57:54;;;;;;;;;;;8.90;99.90;;;;;;4917554;29;19916;-91
2022/09/27 04:00:20;;;;;;;;;;;8.90;99.90;;;;;;4921516;29;19954;-91
2022/09/27 04:02:46;;;;;;;;;;;8.90;99.90;;;;;;4956089;28;19918;-92
2022/09/27 04:05:35;;;;;;;;;;;8.90;99.90;;;;;;4935076;29;19911;-91
2022/09/27 04:08:06;;;;;;;;;;;8.90;99.90;;;;;;4938712;29;19915;-92
2022/09/27 04:10:33;;;;;;;;;;;8.90;99.90;;;;;;4967715;28;19930;-91
2022/09/27 04:12:59;;;;;;;;;;;8.90;99.90;;;;;;4948702;28;20058;-92
2022/09/27 04:15:29;;;;;;;;;;;8.90;99.90;;;;;;4916361;29;20127;-91
2022/09/27 04:18:20;;;;;;;;;;;9.00;99.90;;;;;;4959897;28;19914;-91
2022/09/27 04:21:05;;;;;;;;;;;9.00;99.90;;;;;;4962017;28;19960;-91
2022/09/27 04:23:40;;;;;;;;;;;9.00;99.90;;;;;;4951717;29;19929;-91
2022/09/27 04:26:06;;;;;;;;;;;9.00;99.90;;;;;;4944501;29;19922;-91
2022/09/27 04:28:58;;;;;;;;;;;9.10;99.90;;;;;;4933700;29;19915;-91
2022/09/27 04:31:24;;;;;;;;;;;9.10;99.90;;;;;;4949207;29;20070;-91
2022/09/27 04:33:59;;;;;;;;;;;9.10;99.90;;;;;;4950692;28;19917;-91
2022/09/27 04:36:27;;;;;;;;;;;9.10;99.90;;;;;;4952733;29;19911;-91
2022/09/27 04:39:01;;;;;;;;;;;9.00;99.90;;;;;;4952492;29;20342;-91
2022/09/27 04:41:28;;;;;;;;;;;9.00;99.90;;;;;;4952873;29;19911;-91
2022/09/27 04:44:17;;;;;;;;;;;9.00;99.90;;;;;;4952129;28;19906;-91
2022/09/27 04:46:49;;;;;;;;;;;9.10;99.90;;;;;;4952880;29;20298;-91
2022/09/27 04:49:15;;;;;;;;;;;9.00;99.90;;;;;;4952452;29;19915;-92
2022/09/27 04:51:41;;;;;;;;;;;9.00;99.90;;;;;;4952634;29;19941;-93
2022/09/27 04:54:06;;;;;;;;;;;9.00;99.90;;;;;;4952760;29;19970;-91
2022/09/27 04:56:36;;;;;;;;;;;9.00;99.90;;;;;;4951847;29;19911;-91
2022/09/27 04:59:10;;;;;;;;;;;9.00;99.90;;;;;;4951148;29;19957;-91
2022/09/27 05:01:38;;;;;;;;;;;9.00;99.90;;;;;;4954438;28;19915;-91
2022/09/27 05:04:14;;;;;;;;;;;9.00;99.90;;;;;;4954751;28;19914;-91
2022/09/27 05:06:43;;;;;;;;;;;9.00;99.90;;;;;;4949826;29;19917;-92
2022/09/27 05:09:22;;;;;;;;;;;9.00;99.90;;;;;;4951926;28;19962;-90
2022/09/27 05:11:49;;;;;;;;;;;9.10;99.90;;;;;;4935374;29;19949;-91
2022/09/27 05:14:15;;;;;;;;;;;9.10;99.90;;;;;;4951631;29;20413;-90
2022/09/27 05:16:59;;;;;;;;;;;9.10;99.90;;;;;;4934703;29;20594;-91
2022/09/27 05:19:25;;;;;;;;;;;9.10;99.90;;;;;;4955906;28;19958;-91
2022/09/27 05:22:12;;;;;;;;;;;9.10;99.90;;;;;;4938108;29;19915;-90
2022/09/27 05:24:38;;;;;;;;;;;9.10;99.90;;;;;;4947118;29;20051;-91
2022/09/27 05:27:07;;;;;;;;;;;9.10;99.90;;;;;;4943154;29;19918;-90
2022/09/27 05:29:34;;;;;;;;;;;9.10;99.90;;;;;;4949823;29;19915;-93
2022/09/27 05:32:32;;;;;;;;;;;9.10;99.90;;;;;;4939960;29;19914;-90
2022/09/27 05:35:20;;;;;;;;;;;9.00;99.90;;;;;;4947416;29;20347;-90
2022/09/27 05:37:52;;;;;;;;;;;9.00;99.90;;;;;;4961813;28;19958;-89
2022/09/27 05:40:18;;;;;;;;;;;9.00;99.90;;;;;;4950011;28;19910;-91
2022/09/27 05:42:46;;;;;;;;;;;8.90;99.90;;;;;;4935344;29;19992;-91
2022/09/27 05:45:13;;;;;;;;;;;8.90;99.90;;;;;;4941908;28;19911;-91
2022/09/27 05:47:43;;;;;;;;;;;8.90;99.90;;;;;;4944888;28;19970;-92
2022/09/27 05:50:08;;;;;;;;;;;8.80;99.90;;;;;;4947377;29;19965;-92
2022/09/27 05:52:35;;;;;;;;;;;8.90;99.90;;;;;;4952577;28;19965;-90
2022/09/27 05:55:01;;;;;;;;;;;8.80;99.90;;;;;;4934505;29;19914;-90
2022/09/27 05:57:27;;;;;;;;;;;8.90;99.90;;;;;;4960249;28;19910;-91
2022/09/27 05:59:59;;;;;;;;;;;8.90;99.90;;;;;;4951181;29;19911;-91
2022/09/27 06:02:37;;;;;;;;;;;8.90;99.90;;;;;;4941195;29;19942;-92
2022/09/27 06:05:22;;;;;;;;;;;8.90;99.90;;;;;;4932235;29;19918;-90
2022/09/27 06:08:19;;;;;;;;;;;8.90;99.90;;;;;;4955144;28;19954;-91
2022/09/27 06:10:47;;;;;;;;;;;8.90;99.90;;;;;;4951381;28;20557;-90
2022/09/27 06:13:14;;;;;;;;;;;8.90;99.90;;;;;;4965249;28;20009;-91
2022/09/27 06:15:42;;;;;;;;;;;9.00;99.90;;;;;;4940322;29;19910;-92
2022/09/27 06:18:10;;;;;;;;;;;9.00;99.90;;;;;;4953724;28;19922;-91
2022/09/27 06:20:36;;;;;;;;;;;9.00;99.90;;;;;;4936133;29;19918;-90
2022/09/27 06:23:06;;;;;;;;;;;9.00;99.90;;;;;;4958430;28;19931;-90
2022/09/27 06:25:33;;;;;;;;;;;9.00;99.90;;;;;;4947066;28;19962;-90
2022/09/27 06:28:26;;;;;;;;;;;9.00;99.90;;;;;;4950303;28;19906;-90
2022/09/27 06:30:54;;;;;;;;;;;9.10;99.90;;;;;;4946612;29;20224;-91
2022/09/27 06:33:28;;;;;;;;;;;9.00;99.90;;;;;;4951048;29;19926;-90
2022/09/27 06:35:59;;;;;;;;;;;9.10;99.90;;;;;;4960196;28;20009;-90
2022/09/27 06:38:25;;;;;;;;;;;9.00;99.90;;;;;;4948527;29;19918;-90
2022/09/27 06:41:07;;;;;;;;;;;9.10;99.90;;;;;;4947092;29;19946;-90
2022/09/27 06:44:02;;;;;;;;;;;9.10;99.90;;;;;;4932149;29;19911;-91
2022/09/27 06:46:34;;;;;;;;;;;9.10;99.90;;;;;;4960252;28;19914;-89
2022/09/27 06:49:18;;;;;;;;;;;9.10;99.90;;;;;;4973008;28;19910;-91
2022/09/27 06:51:46;;;;;;;;;;;9.10;99.90;;;;;;4953002;29;19915;-90
2022/09/27 06:54:12;;;;;;;;;;;9.20;99.90;;;;;;4947612;29;19907;-89
2022/09/27 06:56:38;;;;;;;;;;;9.20;99.90;;;;;;4950069;28;20025;-92
2022/09/27 07:01:51;;;;;;;;;;;9.30;99.90;;;;;;4943069;29;19911;-91
2022/09/27 07:04:57;;;;;;;;;;;9.30;99.90;;;;;;4958174;28;20082;-91
2022/09/27 07:07:36;;;;;;;;;;;9.30;99.90;;;;;;4940257;29;19925;-91
2022/09/27 07:10:05;;;;;;;;;;;9.20;99.90;;;;;;4953372;28;20005;-91
2022/09/27 07:12:34;;;;;;;;;;;9.20;99.90;;;;;;4947969;28;20041;-93
2022/09/27 07:15:09;;;;;;;;;;;9.20;99.90;;;;;;4932045;29;19911;-92
2022/09/27 07:17:38;;;;;;;;;;;9.20;99.90;;;;;;4933175;29;19978;-91
2022/09/27 07:20:07;;;;;;;;;;;9.20;99.90;;;;;;4953717;28;19911;-92
2022/09/27 07:22:40;;;;;;;;;;;9.20;99.90;;;;;;4952373;29;20584;-92
2022/09/27 07:25:07;;;;;;;;;;;9.20;99.90;;;;;;4951209;29;20040;-91
2022/09/27 07:27:33;;;;;;;;;;;9.20;99.90;;;;;;4951551;29;20409;-91
2022/09/27 07:30:11;;;;;;;;;;;9.20;99.90;;;;;;4951991;29;19957;-91
2022/09/27 07:32:37;;;;;;;;;;;9.20;99.90;;;;;;4951518;29;19915;-91
2022/09/27 07:35:06;;;;;;;;;;;9.20;99.90;;;;;;4937063;29;19907;-90
2022/09/27 07:37:38;;;;;;;;;;;9.20;99.90;;;;;;4952578;29;19911;-91
2022/09/27 07:40:06;;;;;;;;;;;9.20;99.90;;;;;;4952444;29;19957;-92
2022/09/27 07:42:33;;;;;;;;;;;9.20;99.90;;;;;;4958113;28;20291;-93
2022/09/27 07:44:58;;;;;;;;;;;9.20;99.90;;;;;;4938682;28;19965;-92
2022/09/27 07:47:29;;;;;;;;;;;9.20;99.90;;;;;;4950048;29;19918;-91
2022/09/27 07:50:10;;;;;;;;;;;9.20;99.90;;;;;;4951345;29;19910;-91
2022/09/27 07:53:11;;;;;;;;;;;9.10;99.90;;;;;;4928000;29;19915;-91
2022/09/27 07:55:52;;;;;;;;;;;9.10;99.90;;;;;;4924067;29;20049;-93
2022/09/27 07:58:23;;;;;;;;;;;9.20;99.90;;;;;;4953478;29;20290;-92
2022/09/27 08:00:53;;;;;;;;;;;9.20;99.90;;;;;;4954518;28;19915;-93
2022/09/27 08:03:27;;;;;;;;;;;9.10;99.90;;;;;;4955937;28;19955;-91
2022/09/27 08:05:53;;;;;;;;;;;9.20;99.90;;;;;;4954653;28;19911;-91
2022/09/27 08:08:19;;;;;;;;;;;9.20;99.90;;;;;;4965908;28;20025;-92
2022/09/27 08:10:50;;;;;;;;;;;9.20;99.90;;;;;;4949436;29;19918;-92
2022/09/27 08:13:21;;;;;;;;;;;9.10;99.90;;;;;;4960342;28;19949;-93
2022/09/27 08:15:51;;;;;;;;;;;9.20;99.90;;;;;;4955203;29;19962;-89
2022/09/27 08:18:23;;;;;;;;;;;9.20;99.90;;;;;;4951917;29;20015;-92
2022/09/27 08:21:07;;;;;;;;;;;9.10;99.90;;;;;;4947922;29;20001;-92
2022/09/27 08:23:53;;;;;;;;;;;9.20;99.90;;;;;;4944403;29;19915;-92
2022/09/27 08:26:26;;;;;;;;;;;9.20;99.90;;;;;;4957491;28;20414;-91
2022/09/27 08:29:06;;;;;;;;;;;9.30;99.90;;;;;;4947180;29;19911;-91
2022/09/27 08:31:37;;;;;;;;;;;9.40;99.90;;;;;;4961118;28;19914;-91
2022/09/27 08:34:03;;;;;;;;;;;9.40;99.90;;;;;;4958566;29;20120;-91
2022/09/27 08:36:30;;;;;;;;;;;9.50;99.90;;;;;;4946870;29;20001;-90
2022/09/27 08:38:58;;;;;;;;;;;9.50;99.90;;;;;;4954906;29;20384;-92
2022/09/27 08:41:32;;;;;;;;;;;9.60;99.90;;;;;;4954466;29;19911;-92
2022/09/27 08:44:14;;;;;;;;;;;9.60;99.90;;;;;;4954399;29;19911;-91
2022/09/27 08:47:06;;;;;;;;;;;9.60;99.90;;;;;;4954720;29;19934;-92
2022/09/27 08:49:35;;;;;;;;;;;9.60;99.90;;;;;;4953703;29;20410;-91
2022/09/27 08:52:03;;;;;;;;;;;9.60;99.90;;;;;;4957260;28;19915;-91
2022/09/27 08:54:30;;;;;;;;;;;9.60;99.90;;;;;;4957717;28;19911;-90
2022/09/27 08:57:09;;;;;;;;;;;9.60;99.90;;;;;;4940482;28;19993;-89
2022/09/27 08:59:38;;;;;;;;;;;9.50;99.90;;;;;;4952506;29;19957;-89
2022/09/27 09:02:11;;;;;;;;;;;9.40;99.90;;;;;;4938156;29;20342;-92
2022/09/27 09:04:45;;;;;;;;;;;9.40;99.90;;;;;;4961746;28;19918;-93
2022/09/27 09:07:20;;;;;;;;;;;9.40;99.90;;;;;;4952230;29;19918;-92
2022/09/27 09:09:52;;;;;;;;;;;9.30;99.90;;;;;;4953150;29;19921;-91
2022/09/27 09:12:46;;;;;;;;;;;9.30;99.90;;;;;;4938331;29;19970;-92
2022/09/27 09:15:30;;;;;;;;;;;9.20;99.90;;;;;;4953033;29;20009;-91
2022/09/27 09:21:26;;;;;;;;;;;9.10;99.90;;;;;;4953248;28;19958;-92
2022/09/27 09:24:14;;;;;;;;;;;9.00;99.90;;;;;;4953538;29;19911;-92
2022/09/27 09:26:59;;;;;;;;;;;9.10;99.90;;;;;;4956655;29;19915;-93
2022/09/27 09:29:32;;;;;;;;;;;9.20;99.90;;;;;;4959423;29;19922;-92
2022/09/27 09:32:17;;;;;;;;;;;9.20;99.90;;;;;;4954208;29;20520;-92
2022/09/27 09:35:00;;;;;;;;;;;9.30;99.90;;;;;;4952466;29;19937;-91
2022/09/27 09:37:34;;;;;;;;;;;9.30;99.90;;;;;;4935642;29;20440;-92
2022/09/27 09:40:14;;;;;;;;;;;9.40;99.90;;;;;;4936578;29;19911;-92
2022/09/27 09:43:00;;;;;;;;;;;9.50;99.90;;;;;;4952132;29;19923;-90
2022/09/27 09:45:33;;;;;;;;;;;9.60;99.90;;;;;;4937773;28;19978;-92
2022/09/27 09:48:23;;;;;;;;;;;9.70;99.90;;;;;;4936234;29;19979;-92
2022/09/27 09:50:56;;;;;;;;;;;9.80;99.90;;;;;;4949925;28;19917;-92
2022/09/27 09:53:38;;;;;;;;;;;9.90;99.90;;;;;;4930743;29;20549;-92
2022/09/27 09:56:52;;;;;;;;;;;9.90;99.90;;;;;;4949274;29;19917;-91
2022/09/27 09:59:41;;;;;;;;;;;9.90;99.90;;;;;;4935704;29;19911;-92
2022/09/27 10:02:17;;;;;;;;;;;9.90;99.90;;;;;;4950439;28;19957;-92
2022/09/27 10:04:43;;;;;;;;;;;10.00;99.90;;;;;;4974354;28;19910;-92
2022/09/27 10:07:28;;;;;;;;;;;10.10;99.90;;;;;;4950080;29;19917;-91
2022/09/27 10:09:55;;;;;;;;;;;10.10;99.90;;;;;;4931495;29;20367;-91
2022/09/27 10:12:45;;;;;;;;;;;10.20;99.90;;;;;;4950651;28;19966;-93
2022/09/27 10:15:22;;;;;;;;;;;10.30;99.90;;;;;;4966381;28;19914;-92
2022/09/27 10:17:55;;;;;;;;;;;10.40;99.90;;;;;;4921159;29;19917;-92
2022/09/27 10:23:20;;;;;;;;;;;10.60;99.90;;;;;;4950680;29;19920;-92
2022/09/27 10:26:24;;;;;;;;;;;10.70;99.90;;;;;;4932928;29;20045;-91
2022/09/27 10:28:53;;;;;;;;;;;10.80;99.90;;;;;;4921382;29;19921;-92
2022/09/27 10:31:34;;;;;;;;;;;10.90;99.90;;;;;;4956514;28;20212;-93
2022/09/27 10:34:16;;;;;;;;;;;10.90;99.90;;;;;;4938744;29;20005;-92
2022/09/27 10:36:45;;;;;;;;;;;10.80;99.90;;;;;;4935757;29;19918;-92
2022/09/27 10:39:30;;;;;;;;;;;10.80;99.90;;;;;;4937699;29;19911;-91
2022/09/27 10:41:56;;;;;;;;;;;10.80;99.90;;;;;;4945221;29;20033;-91
2022/09/27 10:44:43;;;;;;;;;;;10.80;99.90;;;;;;4953067;28;19981;-91
2022/09/27 10:47:38;;;;;;;;;;;10.80;99.90;;;;;;4953617;29;19930;-93
2022/09/27 10:50:31;;;;;;;;;;;10.70;99.90;;;;;;4952886;29;19933;-91
2022/09/27 10:53:02;;;;;;;;;;;10.70;99.90;;;;;;4949367;29;19922;-92
2022/09/27 10:55:33;;;;;;;;;;;10.60;99.90;;;;;;4935172;29;20032;-93
2022/09/27 10:58:00;;;;;;;;;;;10.60;99.90;;;;;;4950651;28;19946;-93
2022/09/27 11:00:40;;;;;;;;;;;10.50;99.90;;;;;;4959085;28;19949;-93
2022/09/27 11:03:15;;;;;;;;;;;10.40;99.90;;;;;;4949963;28;20009;-92
2022/09/27 11:05:42;;;;;;;;;;;10.30;99.90;;;;;;4956087;28;20340;-91
2022/09/27 11:08:26;;;;;;;;;;;10.20;99.90;;;;;;4949474;29;19918;-90
2022/09/27 11:11:13;;;;;;;;;;;10.10;99.90;;;;;;4949771;29;19997;-93
2022/09/27 11:13:40;;;;;;;;;;;10.00;99.90;;;;;;4968222;28;19914;-91
2022/09/27 11:16:37;;;;;;;;;;;9.90;99.90;;;;;;4929830;29;19914;-92
2022/09/27 11:19:06;;;;;;;;;;;9.80;99.90;;;;;;4935393;29;19910;-94
2022/09/27 11:22:00;;;;;;;;;;;9.80;99.90;;;;;;4962148;28;20567;-94
2022/09/27 11:24:54;;;;;;;;;;;9.80;99.90;;;;;;4947777;28;19914;-91
2022/09/27 11:27:59;;;;;;;;;;;;;;;;;;;;;
2022/09/27 11:30:50;;;;;;;;;;;9.80;99.90;;;;;;4931759;29;19974;-91
2022/09/27 11:33:47;;;;;;;;;;;9.70;99.90;;;;;;4954902;28;19974;-91
2022/09/27 11:36:45;;;;;;;;;;;9.60;99.90;;;;;;4966656;28;19911;-91
2022/09/27 11:39:44;;;;;;;;;;;9.60;99.90;;;;;;4966444;28;19910;-94
2022/09/27 11:42:46;;;;;;;;;;;9.60;99.90;;;;;;4985555;28;20293;-91
2022/09/27 11:45:44;;;;;;;;;;;9.50;99.90;;;;;;4958674;29;19910;-92
2022/09/27 11:48:21;;;;;;;;;;;9.60;99.90;;;;;;4973965;28;19914;-92
2022/09/27 11:50:52;;;;;;;;;;;9.60;99.90;;;;;;4976537;28;19911;-91
2022/09/27 11:53:56;;;;;;;;;;;;;;;;;;;;;
2022/09/27 11:56:58;;;;;;;;;;;;;;;;;;;;;
2022/09/27 12:00:09;;;;;;;;;;;9.80;99.90;;;;;;4949350;29;19970;-93
2022/09/27 12:02:59;;;;;;;;;;;9.80;99.90;;;;;;4974220;23;20317;-83
2022/09/27 12:05:32;;;;;;;;;;;9.80;99.90;;;;;;4949833;29;19910;-84
2022/09/27 12:08:19;;;;;;;;;;;9.80;99.90;;;;;;4965611;28;19989;-83
2022/09/27 12:10:47;;;;;;;;;;;9.80;99.90;;;;;;4968868;28;19910;-84
2022/09/27 12:13:15;;;;;;;;;;;9.90;99.90;;;;;;4937222;29;19933;-84
2022/09/27 12:15:45;;;;;;;;;;;9.90;99.90;;;;;;4953705;29;19918;-83
2022/09/27 12:18:32;;;;;;;;;;;10.00;99.90;;;;;;4952222;29;19918;-83
2022/09/27 12:21:01;;;;;;;;;;;10.10;99.90;;;;;;4968609;28;19918;-83
2022/09/27 12:23:36;;;;;;;;;;;10.40;99.90;;;;;;4920941;29;20001;-84
2022/09/27 12:26:36;;;;;;;;;;;10.50;99.90;;;;;;4944121;29;19914;-83
2022/09/27 12:29:09;;;;;;;;;;;10.70;99.90;;;;;;4952828;28;19910;-83
2022/09/27 12:31:43;;;;;;;;;;;10.70;99.90;;;;;;4955795;28;20309;-82
2022/09/27 12:34:10;;;;;;;;;;;10.70;99.90;;;;;;4957162;28;19910;-82
2022/09/27 12:36:42;;;;;;;;;;;10.70;99.90;;;;;;4956728;29;19911;-84
2022/09/27 12:39:27;;;;;;;;;;;10.70;99.90;;;;;;4940518;29;19918;-82
2022/09/27 12:42:09;;;;;;;;;;;10.70;99.90;;;;;;4950776;29;19911;-83
2022/09/27 12:44:42;;;;;;;;;;;10.60;99.90;;;;;;4951278;29;19958;-82
2022/09/27 12:47:22;;;;;;;;;;;10.60;99.90;;;;;;4956913;29;20416;-82
2022/09/27 12:49:48;;;;;;;;;;;10.60;99.90;;;;;;4939901;29;19914;-83
2022/09/27 12:52:22;;;;;;;;;;;10.50;99.90;;;;;;4960340;28;19914;-84
2022/09/27 12:55:07;;;;;;;;;;;10.60;99.90;;;;;;4955375;28;19956;-83
2022/09/27 12:57:41;;;;;;;;;;;10.70;99.90;;;;;;4950193;29;19915;-83
2022/09/27 13:00:06;;;;;;;;;;;10.80;99.90;;;;;;4948394;29;20391;-83
2022/09/27 13:02:54;;;;;;;;;;;10.80;99.90;;;;;;4937524;29;19969;-83
2022/09/27 13:05:21;;;;;;;;;;;10.90;99.90;;;;;;4951150;29;20090;-82
2022/09/27 13:08:00;;;;;;;;;;;11.10;99.90;;;;;;4955472;28;19961;-84
2022/09/27 13:10:35;;;;;;;;;;;11.30;99.90;;;;;;4947803;28;19973;-83
2022/09/27 13:13:11;;;;;;;;;;;11.30;99.90;;;;;;4952631;29;20275;-83
2022/09/27 13:15:38;;;;;;;;;;;11.30;99.90;;;;;;4966822;28;19911;-82
2022/09/27 13:18:23;;;;;;;;;;;11.20;99.90;;;;;;4958089;28;19922;-83
2022/09/27 13:20:50;;;;;;;;;;;11.20;99.90;;;;;;4947919;28;19918;-82
2022/09/27 13:23:30;;;;;;;;;;;11.20;99.90;;;;;;4952282;29;19921;-85
2022/09/27 13:26:02;;;;;;;;;;;11.10;99.90;;;;;;4954245;28;19914;-82
2022/09/27 13:28:48;;;;;;;;;;;11.10;99.90;;;;;;4964199;28;19914;-82
2022/09/27 13:31:38;;;;;;;;;;;11.10;99.90;;;;;;4935154;29;19910;-84
2022/09/27 13:34:24;;;;;;;;;;;11.00;99.90;;;;;;4940511;29;19926;-82
2022/09/27 13:36:49;;;;;;;;;;;11.00;99.90;;;;;;4949991;29;19917;-82
2022/09/27 13:39:18;;;;;;;;;;;10.90;99.90;;;;;;4953522;29;20029;-83
2022/09/27 13:42:09;;;;;;;;;;;10.70;99.90;;;;;;4954375;29;19929;-83
2022/09/27 13:44:47;;;;;;;;;;;10.70;99.90;;;;;;4933377;29;20355;-82
2022/09/27 13:47:22;;;;;;;;;;;10.60;99.90;;;;;;4937923;29;20021;-83
2022/09/27 13:49:50;;;;;;;;;;;10.60;99.90;;;;;;4935206;29;19910;-81
2022/09/27 13:52:32;;;;;;;;;;;10.50;99.90;;;;;;4950037;28;20463;-82
2022/09/27 13:55:40;;;;;;;;;;;10.50;99.90;;;;;;4962251;28;19911;-82
2022/09/27 13:58:11;;;;;;;;;;;10.60;99.90;;;;;;4949853;29;19911;-80
2022/09/27 14:00:40;;;;;;;;;;;10.60;99.90;;;;;;4962626;28;20534;-83
2022/09/27 14:03:14;;;;;;;;;;;10.60;99.90;;;;;;4935553;29;19923;-83
2022/09/27 14:06:03;;;;;;;;;;;10.60;99.90;;;;;;4944246;28;20009;-81
2022/09/27 14:08:41;;;;;;;;;;;10.50;99.90;;;;;;4959779;28;19910;-81
2022/09/27 14:11:21;;;;;;;;;;;10.50;99.90;;;;;;4933820;29;19910;-82
2022/09/27 14:13:48;;;;;;;;;;;10.50;99.90;;;;;;4949471;29;19928;-82
2022/09/27 14:16:16;;;;;;;;;;;10.30;99.90;;;;;;4949909;28;19919;-82
2022/09/27 14:18:57;;;;;;;;;;;10.20;99.90;;;;;;4942193;29;19911;-82
2022/09/27 14:21:33;;;;;;;;;;;10.10;99.90;;;;;;4949411;29;19922;-83
2022/09/27 14:24:42;;;;;;;;;;;10.00;99.90;;;;;;4952680;29;19956;-83
2022/09/27 14:27:33;;;;;;;;;;;9.80;99.90;;;;;;4957848;28;19981;-85
2022/09/27 14:30:09;;;;;;;;;;;9.70;99.90;;;;;;4951257;29;20063;-82
2022/09/27 14:32:45;;;;;;;;;;;9.60;99.90;;;;;;4951268;29;20009;-85
2022/09/27 14:37:58;;;;;;;;;;;9.50;99.90;;;;;;4952117;29;20210;-81
2022/09/27 14:40:24;;;;;;;;;;;9.40;99.90;;;;;;4951377;28;19914;-83
2022/09/27 14:42:54;;;;;;;;;;;9.40;99.90;;;;;;4929931;29;19920;-82
2022/09/27 14:45:22;;;;;;;;;;;9.30;99.90;;;;;;4943297;28;19918;-81
2022/09/27 14:47:48;;;;;;;;;;;9.30;99.90;;;;;;4944816;29;19954;-83
2022/09/27 14:50:17;;;;;;;;;;;9.30;99.90;;;;;;4954780;28;20382;-82
2022/09/27 14:52:43;;;;;;;;;;;9.30;99.90;;;;;;4946630;29;19995;-83
2022/09/27 14:55:14;;;;;;;;;;;9.20;99.90;;;;;;4965547;28;19914;-83
2022/09/27 14:57:44;;;;;;;;;;;9.10;99.90;;;;;;4946189;29;19914;-84
2022/09/27 15:00:18;;;;;;;;;;;9.00;99.90;;;;;;4952468;29;19911;-82
2022/09/27 15:02:44;;;;;;;;;;;8.90;99.90;;;;;;4952946;28;19921;-82
2022/09/27 15:05:14;;;;;;;;;;;8.90;99.90;;;;;;4936478;29;19937;-84
2022/09/27 15:07:40;;;;;;;;;;;8.80;99.90;;;;;;4953441;28;20683;-83
2022/09/27 15:10:11;;;;;;;;;;;8.90;99.90;;;;;;4948557;29;19922;-83
2022/09/27 15:12:36;;;;;;;;;;;8.90;99.90;;;;;;4940364;29;19921;-81
2022/09/27 15:15:05;;;;;;;;;;;9.00;99.90;;;;;;4941280;29;20338;-83
2022/09/27 15:17:39;;;;;;;;;;;9.10;99.90;;;;;;4951698;28;19998;-84
2022/09/27 15:20:26;;;;;;;;;;;9.10;99.90;;;;;;4957844;28;19998;-81
2022/09/27 15:22:53;;;;;;;;;;;9.10;99.90;;;;;;4960103;28;19925;-82
2022/09/27 15:25:22;;;;;;;;;;;9.00;99.90;;;;;;4945389;29;19916;-83
2022/09/27 15:27:54;;;;;;;;;;;9.00;99.90;;;;;;4947691;28;20459;-81
2022/09/27 15:30:48;;;;;;;;;;;9.00;99.90;;;;;;4941880;29;19914;-82
2022/09/27 15:33:18;;;;;;;;;;;8.90;99.90;;;;;;4944465;29;19918;-83
2022/09/27 15:35:48;;;;;;;;;;;8.80;99.90;;;;;;4946162;29;20419;-81